Time;durP1;ratioP1;P1;durP2;ratioP2;P2;SDS_P1;SDS_P2;PMS_P1;PMS_P2;Temp;Humidity;BMP_temperature;BMP_pressure;BME280_temperature;BME280_humidity;BME280_pressure;Samples;Min_cycle;Max_cycle;Signal;HPM_P1;HPM_P2
2023/07/06 00:00:59;;;;;;;4.40;1.50;;;14.50;99.90;;;;;;5049402;28;20029;-72
2023/07/06 00:03:25;;;;;;;3.88;1.30;;;14.50;99.90;;;;;;5049744;28;20109;-72
2023/07/06 00:05:51;;;;;;;3.83;1.30;;;14.40;99.90;;;;;;5048878;28;20578;-72
2023/07/06 00:08:17;;;;;;;4.03;1.50;;;14.50;99.90;;;;;;5049550;28;20036;-72
2023/07/06 00:10:44;;;;;;;4.47;1.17;;;14.50;99.90;;;;;;5050436;28;20052;-72
2023/07/06 00:13:11;;;;;;;2.28;1.20;;;14.40;99.90;;;;;;5053074;28;20033;-72
2023/07/06 00:15:38;;;;;;;1.85;1.15;;;14.40;99.90;;;;;;5052683;28;20033;-72
2023/07/06 00:18:04;;;;;;;1.88;0.88;;;14.40;99.90;;;;;;5053247;28;20044;-72
2023/07/06 00:20:37;;;;;;;2.42;0.85;;;14.40;99.90;;;;;;5052714;28;20060;-74
2023/07/06 00:23:04;;;;;;;0.70;0.70;;;14.40;99.90;;;;;;5053317;28;20100;-72
2023/07/06 00:25:30;;;;;;;1.52;1.02;;;14.40;99.90;;;;;;5052553;28;20037;-73
2023/07/06 00:28:02;;;;;;;1.00;0.80;;;14.30;99.90;;;;;;5052888;28;20138;-71
2023/07/06 00:33:13;;;;;;;2.75;1.00;;;14.40;99.90;;;;;;5052794;28;20365;-72
2023/07/06 00:35:43;;;;;;;1.67;1.00;;;14.40;99.90;;;;;;5052285;28;20063;-73
2023/07/06 00:38:13;;;;;;;2.30;0.90;;;14.30;99.90;;;;;;5052486;28;20033;-72
2023/07/06 00:40:41;;;;;;;1.10;0.90;;;14.40;99.90;;;;;;5052005;28;20132;-72
2023/07/06 00:43:12;;;;;;;1.92;1.00;;;14.40;99.90;;;;;;5052666;28;20036;-72
2023/07/06 00:45:38;;;;;;;1.85;1.15;;;14.40;99.90;;;;;;5052055;28;20060;-72
2023/07/06 00:48:12;;;;;;;0.90;0.82;;;14.40;99.90;;;;;;5052683;28;20112;-72
2023/07/06 00:50:38;;;;;;;2.65;0.90;;;14.40;99.90;;;;;;5050571;28;20363;-72
2023/07/06 00:53:14;;;;;;;1.60;1.05;;;14.40;99.90;;;;;;5052336;28;20033;-72
2023/07/06 00:55:43;;;;;;;3.55;1.20;;;14.40;99.90;;;;;;5051818;28;20470;-72
2023/07/06 00:58:14;;;;;;;1.80;1.17;;;14.30;99.90;;;;;;5051705;28;20035;-72
2023/07/06 01:00:40;;;;;;;1.83;1.00;;;14.40;99.90;;;;;;5051521;28;20029;-72
2023/07/06 01:03:08;;;;;;;1.83;1.00;;;14.40;99.90;;;;;;5052419;28;20615;-72
2023/07/06 01:05:34;;;;;;;2.03;1.00;;;14.40;99.90;;;;;;5051578;28;20044;-74
2023/07/06 01:08:16;;;;;;;2.33;1.40;;;14.40;99.90;;;;;;5052106;28;20028;-72
2023/07/06 01:10:43;;;;;;;2.70;1.38;;;14.40;99.90;;;;;;5051061;28;20025;-72
2023/07/06 01:13:09;;;;;;;3.63;1.52;;;14.40;99.90;;;;;;5051959;28;20208;-72
2023/07/06 01:15:46;;;;;;;3.17;1.45;;;14.40;99.90;;;;;;5051201;28;20178;-73
2023/07/06 01:18:22;;;;;;;3.65;2.05;;;14.30;99.90;;;;;;5052027;28;20025;-72
2023/07/06 01:21:02;;;;;;;4.38;1.40;;;14.30;99.90;;;;;;5051471;28;20087;-72
2023/07/06 01:24:05;;;;;;;5.40;1.42;;;14.20;99.90;;;;;;5050966;28;20029;-72
2023/07/06 01:26:49;;;;;;;3.22;1.27;;;14.20;99.90;;;;;;5051635;28;20028;-72
2023/07/06 01:29:17;;;;;;;1.60;1.20;;;14.20;99.90;;;;;;5051653;28;20159;-72
2023/07/06 01:31:52;;;;;;;3.97;1.40;;;14.30;99.90;;;;;;5051148;28;20025;-72
2023/07/06 01:34:41;;;;;;;3.72;1.35;;;14.20;99.90;;;;;;5051326;28;20037;-72
2023/07/06 01:37:28;;;;;;;3.42;1.70;;;14.30;99.90;;;;;;5051519;28;20037;-72
2023/07/06 01:39:53;;;;;;;2.85;1.25;;;14.30;99.90;;;;;;5051082;28;20025;-72
2023/07/06 01:42:26;;;;;;;4.60;1.60;;;14.20;99.90;;;;;;5051282;28;20025;-72
2023/07/06 01:45:12;;;;;;;2.75;1.45;;;14.20;99.90;;;;;;5051264;28;20029;-72
2023/07/06 01:47:45;;;;;;;2.40;1.50;;;14.20;99.90;;;;;;5049486;28;20043;-73
2023/07/06 01:50:13;;;;;;;1.70;1.30;;;14.20;99.90;;;;;;5050912;28;20028;-72
2023/07/06 01:53:03;;;;;;;5.30;1.90;;;14.20;99.90;;;;;;5050686;28;20096;-72
2023/07/06 01:55:40;;;;;;;2.95;1.42;;;14.20;99.90;;;;;;5050088;28;20142;-72
2023/07/06 01:58:23;;;;;;;3.75;1.50;;;14.20;99.90;;;;;;5051008;28;20036;-72
2023/07/06 02:00:53;;;;;;;2.42;1.40;;;14.20;99.90;;;;;;5049088;28;20029;-72
2023/07/06 02:03:19;;;;;;;3.75;1.92;;;14.20;99.90;;;;;;5051007;28;20017;-71
2023/07/06 02:05:46;;;;;;;3.63;1.75;;;14.20;99.90;;;;;;5049995;28;20402;-72
2023/07/06 02:08:13;;;;;;;2.28;1.17;;;14.20;99.90;;;;;;5051056;28;20073;-72
2023/07/06 02:10:39;;;;;;;4.47;1.80;;;14.20;99.90;;;;;;5050288;28;20021;-73
2023/07/06 02:13:05;;;;;;;3.67;1.55;;;14.20;99.90;;;;;;5050743;28;20028;-72
2023/07/06 02:15:31;;;;;;;5.90;1.70;;;14.20;99.90;;;;;;5050521;28;20052;-72
2023/07/06 02:17:57;;;;;;;5.38;1.45;;;14.20;99.90;;;;;;5050037;28;20092;-72
2023/07/06 02:20:23;;;;;;;5.82;2.17;;;14.10;99.90;;;;;;5051239;28;20401;-72
2023/07/06 02:22:49;;;;;;;2.20;1.50;;;14.10;99.90;;;;;;5050039;28;20025;-72
2023/07/06 02:25:15;;;;;;;5.45;1.67;;;14.10;99.90;;;;;;5050798;28;20032;-72
2023/07/06 02:27:41;;;;;;;4.40;1.95;;;14.00;99.90;;;;;;5050149;28;20089;-72
2023/07/06 02:30:07;;;;;;;3.35;1.73;;;13.90;99.90;;;;;;5050180;28;20045;-72
2023/07/06 02:32:34;;;;;;;4.50;1.73;;;13.90;99.90;;;;;;5050629;28;20029;-72
2023/07/06 02:35:01;;;;;;;5.38;1.75;;;13.90;99.90;;;;;;5049898;28;20028;-72
2023/07/06 02:37:28;;;;;;;3.72;1.95;;;13.90;99.90;;;;;;5050588;28;20132;-72
2023/07/06 02:39:54;;;;;;;3.17;1.80;;;13.90;99.90;;;;;;5050034;28;20025;-72
2023/07/06 02:42:21;;;;;;;4.65;1.77;;;13.90;99.90;;;;;;5050294;28;20021;-72
2023/07/06 02:44:47;;;;;;;4.82;1.70;;;13.90;99.90;;;;;;5049647;28;20351;-72
2023/07/06 02:47:13;;;;;;;3.38;1.38;;;14.00;99.90;;;;;;5049138;28;20039;-72
2023/07/06 02:49:39;;;;;;;1.83;1.58;;;14.10;99.90;;;;;;5048860;28;20035;-74
2023/07/06 02:52:06;;;;;;;3.63;1.33;;;14.10;99.90;;;;;;5050788;28;20033;-72
2023/07/06 02:54:32;;;;;;;2.30;1.58;;;14.10;99.90;;;;;;5050633;28;20401;-72
2023/07/06 02:57:02;;;;;;;4.80;1.73;;;14.10;99.90;;;;;;5050039;28;20112;-72
2023/07/06 02:59:29;;;;;;;3.72;1.80;;;14.10;99.90;;;;;;5050406;28;20021;-72
2023/07/06 03:01:57;;;;;;;3.55;1.65;;;14.10;99.90;;;;;;5049628;28;20025;-72
2023/07/06 03:04:23;;;;;;;3.60;1.58;;;14.20;99.90;;;;;;5049950;28;20029;-72
2023/07/06 03:06:49;;;;;;;7.68;2.03;;;14.20;99.90;;;;;;5049420;28;20033;-72
2023/07/06 03:09:15;;;;;;;5.95;1.65;;;14.20;99.90;;;;;;5049630;28;20033;-72
2023/07/06 03:11:44;;;;;;;3.22;1.50;;;14.20;99.90;;;;;;5049673;28;20032;-74
2023/07/06 03:14:10;;;;;;;3.33;1.60;;;14.10;99.90;;;;;;5050158;28;20028;-72
2023/07/06 03:16:42;;;;;;;2.03;1.50;;;14.10;99.90;;;;;;5050075;28;20048;-72
2023/07/06 03:19:10;;;;;;;5.53;1.80;;;14.20;99.90;;;;;;5050539;28;20119;-72
2023/07/06 03:21:38;;;;;;;7.65;1.90;;;14.10;99.90;;;;;;5050055;28;20119;-72
2023/07/06 03:24:06;;;;;;;3.45;2.17;;;14.10;99.90;;;;;;5049145;28;20128;-72
2023/07/06 03:26:34;;;;;;;2.85;1.75;;;14.10;99.90;;;;;;5049885;28;20064;-72
2023/07/06 03:29:04;;;;;;;6.57;1.90;;;14.10;99.90;;;;;;5049425;28;20151;-71
2023/07/06 03:31:32;;;;;;;4.13;1.85;;;14.10;99.90;;;;;;5050063;28;20025;-72
2023/07/06 03:34:01;;;;;;;3.47;2.13;;;14.10;99.90;;;;;;5047856;28;20373;-73
2023/07/06 03:36:27;;;;;;;4.03;1.90;;;14.10;99.90;;;;;;5049594;28;20033;-72
2023/07/06 03:38:53;;;;;;;4.80;1.88;;;14.10;99.90;;;;;;5048924;28;20371;-72
2023/07/06 03:41:20;;;;;;;5.53;2.08;;;14.10;99.90;;;;;;5049462;28;20052;-72
2023/07/06 03:43:46;;;;;;;3.13;1.52;;;14.10;99.90;;;;;;5047742;28;20093;-72
2023/07/06 03:46:15;;;;;;;3.85;1.73;;;14.10;99.90;;;;;;5051742;28;20111;-72
2023/07/06 03:48:44;;;;;;;4.57;1.67;;;14.10;99.90;;;;;;5052127;28;20025;-72
2023/07/06 03:51:10;;;;;;;3.63;1.98;;;14.10;99.90;;;;;;5053531;28;20029;-72
2023/07/06 03:53:36;;;;;;;6.38;2.33;;;14.10;99.90;;;;;;5053320;28;20359;-72
2023/07/06 03:56:03;;;;;;;4.40;2.08;;;14.10;99.90;;;;;;5053053;28;20087;-72
2023/07/06 03:58:29;;;;;;;4.88;1.88;;;14.10;99.90;;;;;;5053261;28;20107;-72
2023/07/06 04:00:58;;;;;;;3.47;1.95;;;14.10;99.90;;;;;;5051424;28;20404;-73
2023/07/06 04:03:27;;;;;;;5.57;1.83;;;14.20;99.90;;;;;;5053309;28;20036;-72
2023/07/06 04:05:54;;;;;;;8.70;2.25;;;14.20;99.90;;;;;;5052547;28;20112;-72
2023/07/06 04:08:22;;;;;;;7.22;1.70;;;14.20;99.90;;;;;;5053106;28;20029;-72
2023/07/06 04:10:48;;;;;;;5.43;1.90;;;14.20;99.90;;;;;;5052347;28;20025;-72
2023/07/06 04:13:15;;;;;;;6.47;2.08;;;14.30;99.90;;;;;;5053123;28;20029;-72
2023/07/06 04:15:44;;;;;;;2.25;1.60;;;14.20;99.90;;;;;;5052927;28;20025;-71
2023/07/06 04:18:10;;;;;;;3.40;1.88;;;14.20;99.90;;;;;;5052403;28;20024;-71
2023/07/06 04:20:36;;;;;;;3.08;1.73;;;14.20;99.90;;;;;;5053376;28;20044;-72
2023/07/06 04:23:03;;;;;;;4.20;1.92;;;14.20;99.90;;;;;;5052160;28;20433;-72
2023/07/06 04:25:30;;;;;;;3.13;1.60;;;14.20;99.90;;;;;;5052796;28;20079;-72
2023/07/06 04:27:58;;;;;;;5.93;2.05;;;14.20;99.90;;;;;;5052539;28;20037;-72
2023/07/06 04:30:25;;;;;;;1.90;1.73;;;14.20;99.90;;;;;;5052414;28;20076;-72
2023/07/06 04:32:51;;;;;;;8.25;2.15;;;14.20;99.90;;;;;;5052109;28;20111;-72
2023/07/06 04:35:21;;;;;;;3.60;1.85;;;14.20;99.90;;;;;;5052557;28;20435;-71
2023/07/06 04:37:48;;;;;;;3.72;1.70;;;14.20;99.90;;;;;;5052441;28;20036;-74
2023/07/06 04:40:17;;;;;;;3.38;1.83;;;14.20;99.90;;;;;;5052576;28;20037;-72
2023/07/06 04:42:48;;;;;;;4.05;2.00;;;14.20;99.90;;;;;;5052468;28;20053;-72
2023/07/06 04:45:18;;;;;;;4.35;1.90;;;14.20;99.90;;;;;;5052960;28;20035;-72
2023/07/06 04:47:44;;;;;;;3.08;1.63;;;14.10;99.90;;;;;;5052297;28;20029;-72
2023/07/06 04:50:17;;;;;;;3.42;1.70;;;14.10;99.90;;;;;;5050112;28;20116;-72
2023/07/06 04:52:45;;;;;;;9.27;2.05;;;14.10;99.90;;;;;;5052475;28;20025;-72
2023/07/06 04:55:11;;;;;;;3.63;1.80;;;14.10;99.90;;;;;;5052269;28;20029;-71
2023/07/06 04:57:38;;;;;;;5.63;2.00;;;14.10;99.90;;;;;;5049790;28;20028;-72
2023/07/06 05:00:16;;;;;;;6.05;1.85;;;14.10;99.90;;;;;;5051491;28;20032;-72
2023/07/06 05:02:42;;;;;;;2.90;1.92;;;14.10;99.90;;;;;;5052359;28;20053;-72
2023/07/06 05:05:11;;;;;;;5.60;2.13;;;14.10;99.90;;;;;;5051763;28;20025;-72
2023/07/06 05:07:38;;;;;;;4.35;2.17;;;14.10;99.90;;;;;;5052289;28;20037;-72
2023/07/06 05:10:04;;;;;;;4.40;1.90;;;14.20;99.90;;;;;;5051769;28;20051;-72
2023/07/06 05:12:30;;;;;;;5.05;2.10;;;14.20;99.90;;;;;;5052138;28;20021;-72
2023/07/06 05:14:55;;;;;;;2.72;1.88;;;14.20;99.90;;;;;;5051241;28;20484;-72
2023/07/06 05:17:21;;;;;;;4.75;1.95;;;14.20;99.90;;;;;;5051846;28;20104;-72
2023/07/06 05:19:47;;;;;;;3.70;1.88;;;14.20;99.90;;;;;;5051985;28;20027;-72
2023/07/06 05:22:13;;;;;;;4.40;2.22;;;14.30;99.90;;;;;;5051208;28;20173;-72
2023/07/06 05:24:39;;;;;;;3.80;1.80;;;14.30;99.90;;;;;;5051715;28;20027;-72
2023/07/06 05:27:06;;;;;;;3.55;1.85;;;14.30;99.90;;;;;;5049718;28;20120;-72
2023/07/06 05:29:32;;;;;;;4.20;1.80;;;14.30;99.90;;;;;;5049775;28;20107;-72
2023/07/06 05:31:59;;;;;;;3.88;2.17;;;14.40;99.90;;;;;;5051049;28;20047;-72
2023/07/06 05:34:24;;;;;;;6.13;2.33;;;14.40;99.90;;;;;;5051445;28;20028;-72
2023/07/06 05:36:50;;;;;;;5.57;1.92;;;14.40;99.90;;;;;;5051107;28;20111;-74
2023/07/06 05:39:16;;;;;;;4.85;2.15;;;14.40;99.90;;;;;;5051333;28;20565;-72
2023/07/06 05:41:43;;;;;;;7.20;2.55;;;14.50;99.90;;;;;;5051319;28;20123;-72
2023/07/06 05:44:09;;;;;;;6.47;2.40;;;14.40;99.90;;;;;;5050632;28;20025;-72
2023/07/06 05:46:35;;;;;;;5.45;2.35;;;14.50;99.90;;;;;;5051447;28;20033;-72
2023/07/06 05:49:01;;;;;;;5.97;1.95;;;14.50;99.90;;;;;;5050249;28;20359;-72
2023/07/06 05:51:26;;;;;;;5.47;2.00;;;14.60;99.90;;;;;;5051093;28;20025;-72
2023/07/06 05:53:52;;;;;;;4.80;2.20;;;14.60;99.90;;;;;;5050420;28;20125;-74
2023/07/06 05:56:19;;;;;;;7.35;2.22;;;14.60;99.90;;;;;;5051058;28;20115;-72
2023/07/06 05:58:45;;;;;;;3.08;1.90;;;14.60;99.90;;;;;;5050841;28;20450;-72
2023/07/06 06:01:11;;;;;;;5.38;2.00;;;14.70;99.90;;;;;;5048918;28;20044;-72
2023/07/06 06:03:38;;;;;;;7.93;2.35;;;14.80;99.90;;;;;;5050802;28;20036;-72
2023/07/06 06:06:04;;;;;;;5.40;1.90;;;14.80;99.90;;;;;;5050263;28;20478;-72
2023/07/06 06:08:30;;;;;;;3.75;2.13;;;14.90;99.90;;;;;;5050486;28;20091;-72
2023/07/06 06:10:55;;;;;;;6.40;2.25;;;14.90;99.90;;;;;;5048716;28;20469;-72
2023/07/06 06:13:22;;;;;;;4.93;1.85;;;15.00;99.90;;;;;;5050899;28;20117;-72
2023/07/06 06:15:48;;;;;;;6.43;2.20;;;15.00;99.90;;;;;;5050503;28;20156;-72
2023/07/06 06:18:14;;;;;;;4.38;2.20;;;15.00;99.90;;;;;;5050165;28;20421;-72
2023/07/06 06:20:42;;;;;;;3.28;1.98;;;15.00;99.90;;;;;;5050925;28;20032;-72
2023/07/06 06:23:10;;;;;;;4.05;1.58;;;15.10;99.90;;;;;;5050085;28;20441;-72
2023/07/06 06:25:38;;;;;;;6.13;2.28;;;15.10;99.90;;;;;;5050294;28;20029;-72
2023/07/06 06:28:05;;;;;;;4.90;1.90;;;15.10;99.90;;;;;;5049681;28;20362;-73
2023/07/06 06:30:31;;;;;;;3.58;1.98;;;15.10;99.90;;;;;;5050510;28;20101;-72
2023/07/06 06:32:57;;;;;;;7.47;1.70;;;15.10;99.90;;;;;;5049608;28;20359;-73
2023/07/06 06:35:28;;;;;;;3.13;1.65;;;15.10;99.90;;;;;;5050149;28;20091;-72
2023/07/06 06:37:55;;;;;;;4.30;1.67;;;15.20;99.90;;;;;;5048754;28;20029;-73
2023/07/06 06:40:21;;;;;;;3.42;2.17;;;15.30;99.90;;;;;;5050378;28;20029;-72
2023/07/06 06:42:48;;;;;;;7.13;2.22;;;15.40;99.90;;;;;;5050365;28;20033;-72
2023/07/06 06:45:15;;;;;;;5.15;1.88;;;15.50;99.90;;;;;;5049759;28;20029;-72
2023/07/06 06:47:41;;;;;;;5.10;2.15;;;15.60;99.90;;;;;;5050287;28;20083;-72
2023/07/06 06:50:13;;;;;;;3.72;1.92;;;15.70;99.90;;;;;;5049233;28;20461;-72
2023/07/06 06:52:40;;;;;;;4.70;1.70;;;15.90;99.90;;;;;;5050605;28;20094;-72
2023/07/06 06:55:07;;;;;;;4.93;2.30;;;16.00;99.90;;;;;;5049600;28;20480;-72
2023/07/06 06:57:33;;;;;;;4.47;1.75;;;16.00;99.90;;;;;;5049943;28;20364;-72
2023/07/06 06:59:59;;;;;;;5.20;2.22;;;16.10;99.90;;;;;;5049854;28;20132;-73
2023/07/06 07:02:25;;;;;;;8.23;1.85;;;16.20;99.90;;;;;;5050551;28;20036;-72
2023/07/06 07:04:52;;;;;;;6.28;1.88;;;16.20;99.90;;;;;;5050546;28;20041;-72
2023/07/06 07:07:18;;;;;;;6.75;2.00;;;16.30;99.90;;;;;;5050031;28;20047;-72
2023/07/06 07:09:45;;;;;;;6.43;2.00;;;16.40;99.90;;;;;;5050321;28;20162;-73
2023/07/06 07:12:11;;;;;;;4.30;1.83;;;16.40;99.90;;;;;;5049871;28;20359;-72
2023/07/06 07:14:38;;;;;;;6.13;1.95;;;16.50;99.90;;;;;;5050223;28;20025;-72
2023/07/06 07:17:07;;;;;;;6.45;1.85;;;16.60;99.90;;;;;;5049511;28;20105;-72
2023/07/06 07:19:34;;;;;;;6.75;1.67;;;16.70;99.90;;;;;;5050234;28;20045;-72
2023/07/06 07:22:01;;;;;;;6.00;1.60;;;16.70;99.90;;;;;;5053053;28;20109;-73
2023/07/06 07:24:30;;;;;;;4.78;1.90;;;16.70;99.90;;;;;;5054192;28;20039;-72
2023/07/06 07:26:57;;;;;;;7.20;2.53;;;16.70;99.90;;;;;;5053835;28;20064;-73
2023/07/06 07:29:23;;;;;;;3.70;2.10;;;16.80;99.90;;;;;;5054025;28;20055;-72
2023/07/06 07:31:50;;;;;;;2.75;1.77;;;16.80;99.90;;;;;;5054051;28;20096;-72
2023/07/06 07:34:17;;;;;;;4.82;2.10;;;16.90;99.90;;;;;;5053220;28;20021;-73
2023/07/06 07:36:43;;;;;;;4.85;1.75;;;16.90;99.90;;;;;;5053719;28;20102;-72
2023/07/06 07:39:10;;;;;;;3.47;1.88;;;16.90;99.90;;;;;;5053014;28;20073;-72
2023/07/06 07:41:36;;;;;;;5.47;1.83;;;16.90;99.90;;;;;;5053058;28;20045;-72
2023/07/06 07:44:01;;;;;;;3.80;2.30;;;17.00;99.90;;;;;;5053057;28;20086;-73
2023/07/06 07:46:31;;;;;;;7.32;2.08;;;17.00;99.90;;;;;;5053351;28;20037;-72
2023/07/06 07:48:57;;;;;;;5.22;1.90;;;17.10;99.90;;;;;;5053138;28;20029;-72
2023/07/06 07:51:26;;;;;;;3.85;1.90;;;17.20;99.90;;;;;;5052633;28;20446;-72
2023/07/06 07:53:54;;;;;;;4.97;1.95;;;17.30;99.90;;;;;;5053724;28;20327;-72
2023/07/06 07:56:22;;;;;;;6.90;2.08;;;17.40;99.90;;;;;;5052800;28;20146;-72
2023/07/06 07:58:48;;;;;;;7.60;2.55;;;17.50;99.90;;;;;;5053486;28;20025;-72
2023/07/06 08:01:23;;;;;;;6.25;2.08;;;17.50;99.90;;;;;;5052635;28;20029;-73
2023/07/06 08:03:49;;;;;;;3.78;2.90;;;17.60;99.90;;;;;;5053605;28;20021;-72
2023/07/06 08:06:18;;;;;;;4.03;2.15;;;17.70;99.90;;;;;;5052493;28;20032;-72
2023/07/06 08:08:44;;;;;;;6.70;2.05;;;17.90;99.90;;;;;;5053252;28;20415;-73
2023/07/06 08:11:16;;;;;;;6.57;1.88;;;17.90;99.90;;;;;;5051338;28;20035;-73
2023/07/06 08:13:50;;;;;;;8.73;1.83;;;18.20;99.90;;;;;;5053175;28;20096;-72
2023/07/06 08:16:16;;;;;;;6.35;2.03;;;18.40;99.90;;;;;;5052299;28;20398;-73
2023/07/06 08:18:43;;;;;;;4.82;1.73;;;18.60;99.90;;;;;;5052944;28;20029;-73
2023/07/06 08:21:10;;;;;;;8.05;1.83;;;18.60;99.90;;;;;;5052701;28;20116;-73
2023/07/06 08:23:40;;;;;;;7.38;1.88;;;18.60;99.90;;;;;;5053145;28;20033;-72
2023/07/06 08:26:08;;;;;;;3.85;1.80;;;18.70;99.90;;;;;;5052441;28;20037;-72
2023/07/06 08:28:34;;;;;;;3.20;1.88;;;18.70;99.90;;;;;;5052762;28;20070;-72
2023/07/06 08:31:02;;;;;;;5.88;1.80;;;18.70;99.90;;;;;;5052599;28;20116;-73
2023/07/06 08:33:32;;;;;;;9.20;1.67;;;18.70;99.90;;;;;;5053091;28;20083;-72
2023/07/06 08:35:58;;;;;;;3.28;1.90;;;18.60;99.90;;;;;;5052705;28;20083;-73
2023/07/06 08:38:23;;;;;;;4.03;1.80;;;18.60;99.90;;;;;;5050833;28;20382;-72
2023/07/06 08:40:52;;;;;;;3.90;2.10;;;18.70;99.90;;;;;;5052740;28;20025;-73
2023/07/06 08:43:26;;;;;;;9.00;2.10;;;18.60;99.90;;;;;;5052545;28;20112;-73
2023/07/06 08:45:58;;;;;;;7.22;2.17;;;18.80;99.90;;;;;;5052997;28;20461;-73
2023/07/06 08:48:26;;;;;;;6.07;2.20;;;18.80;99.90;;;;;;5052185;28;20132;-73
2023/07/06 08:50:59;;;;;;;3.75;1.70;;;18.80;99.90;;;;;;5052476;28;20063;-73
2023/07/06 08:53:32;;;;;;;9.68;2.13;;;18.80;99.90;;;;;;5052002;28;20033;-73
2023/07/06 08:56:00;;;;;;;;;;;18.90;99.90;;;;;;5053526;28;20373;-73
2023/07/06 08:58:30;;;;;;;3.75;1.83;;;18.90;99.90;;;;;;5052142;28;20007;-73
2023/07/06 09:01:05;;;;;;;6.82;2.08;;;19.00;99.90;;;;;;5052930;28;20157;-73
2023/07/06 09:03:40;;;;;;;4.97;2.08;;;19.00;99.90;;;;;;5052911;28;20029;-73
2023/07/06 09:06:18;;;;;;;5.38;1.80;;;19.00;99.90;;;;;;5050773;28;20033;-73
2023/07/06 09:08:45;;;;;;;5.82;2.00;;;19.10;99.90;;;;;;5052809;28;20029;-73
2023/07/06 09:11:12;;;;;;;3.47;1.83;;;19.20;99.90;;;;;;5052451;28;20052;-74
2023/07/06 09:13:49;;;;;;;2.63;1.80;;;19.30;99.90;;;;;;5052804;28;20405;-73
2023/07/06 09:16:22;;;;;;;3.80;1.60;;;19.50;99.90;;;;;;5052085;28;20530;-73
2023/07/06 09:18:50;;;;;;;4.35;1.80;;;19.50;99.90;;;;;;5052435;28;20021;-73
2023/07/06 09:21:26;;;;;;;3.92;1.75;;;19.60;99.90;;;;;;5051736;28;20045;-72
2023/07/06 09:23:53;;;;;;;4.40;2.10;;;19.70;99.90;;;;;;5052353;28;20021;-73
2023/07/06 09:26:34;;;;;;;3.00;1.55;;;19.70;99.90;;;;;;5051646;28;20075;-73
2023/07/06 09:29:31;;;;;;;4.25;1.90;;;19.80;99.90;;;;;;5052186;28;20041;-73
2023/07/06 09:32:17;;;;;;;5.88;2.00;;;19.70;99.90;;;;;;5051542;28;20059;-73
2023/07/06 09:34:46;;;;;;;4.93;1.70;;;19.60;99.90;;;;;;5051946;28;20044;-73
2023/07/06 09:37:14;;;;;;;4.05;1.88;;;19.60;99.90;;;;;;5050999;28;20056;-73
2023/07/06 09:39:41;;;;;;;4.30;2.15;;;19.50;99.90;;;;;;5051980;28;20083;-73
2023/07/06 09:42:12;;;;;;;2.33;1.70;;;19.40;99.90;;;;;;5049840;28;20033;-75
2023/07/06 09:44:39;;;;;;;4.68;1.92;;;19.30;99.90;;;;;;5051154;28;20433;-72
2023/07/06 09:47:11;;;;;;;4.57;1.80;;;19.30;99.90;;;;;;5051566;28;20052;-72
2023/07/06 09:49:50;;;;;;;5.28;2.17;;;19.30;99.90;;;;;;5051704;28;20024;-72
2023/07/06 09:52:18;;;;;;;2.53;1.90;;;19.40;99.90;;;;;;5050614;28;20052;-72
2023/07/06 09:55:16;;;;;;;3.60;1.70;;;19.40;99.90;;;;;;5051319;28;20103;-72
2023/07/06 09:57:44;;;;;;;3.92;1.80;;;19.40;99.90;;;;;;5047757;28;20102;-71
2023/07/06 10:00:19;;;;;;;4.53;2.10;;;19.40;99.90;;;;;;5051140;28;20045;-72
2023/07/06 10:03:03;;;;;;;3.22;1.55;;;19.40;99.90;;;;;;5050807;28;20036;-72
2023/07/06 10:06:03;;;;;;;3.40;1.83;;;19.40;99.90;;;;;;5050569;28;20029;-72
2023/07/06 10:08:46;;;;;;;2.72;1.60;;;19.40;99.90;;;;;;5050331;28;20132;-72
2023/07/06 10:11:39;;;;;;;5.30;2.20;;;19.30;99.90;;;;;;5050648;28;20132;-72
2023/07/06 10:14:28;;;;;;;3.67;2.15;;;19.20;99.90;;;;;;5050583;28;20021;-72
2023/07/06 10:17:08;;;;;;;5.53;2.35;;;19.10;99.90;;;;;;5051319;28;20025;-71
2023/07/06 10:20:08;;;;;;;3.03;2.15;;;19.10;99.90;;;;;;5051245;28;20052;-72
2023/07/06 10:23:06;;;;;;;2.67;1.77;;;19.20;99.90;;;;;;5041196;28;20041;-72
2023/07/06 10:25:46;;;;;;;7.15;2.00;;;19.10;99.90;;;;;;5013652;28;20086;-72
2023/07/06 10:28:23;;;;;;;4.50;2.03;;;19.10;99.90;;;;;;5049552;28;20047;-72
2023/07/06 10:30:52;;;;;;;4.75;1.95;;;19.30;99.90;;;;;;5050441;28;20059;-72
2023/07/06 10:33:33;;;;;;;6.63;1.92;;;19.50;99.90;;;;;;5049884;28;20071;-71
2023/07/06 10:36:00;;;;;;;3.80;1.77;;;19.70;99.90;;;;;;5049537;28;20035;-72
2023/07/06 10:38:26;;;;;;;6.03;2.10;;;19.90;99.90;;;;;;5049818;28;20513;-71
2023/07/06 10:41:11;;;;;;;5.75;1.83;;;19.90;99.90;;;;;;5050377;28;20095;-72
2023/07/06 10:43:43;;;;;;;5.50;2.20;;;19.70;99.90;;;;;;5049929;28;20025;-72
2023/07/06 10:46:30;;;;;;;3.95;2.15;;;19.50;99.90;;;;;;5048574;28;20102;-74
2023/07/06 10:49:02;;;;;;;6.00;2.10;;;19.30;99.90;;;;;;5050213;28;20025;-72
2023/07/06 10:51:28;;;;;;;3.33;2.00;;;19.30;99.90;;;;;;5049482;28;20044;-72
2023/07/06 10:54:19;;;;;;;5.18;2.38;;;19.30;99.90;;;;;;5049960;28;20459;-72
2023/07/06 10:56:55;;;;;;;5.53;2.65;;;19.30;99.90;;;;;;5050387;28;20432;-71
2023/07/06 10:59:25;;;;;;;7.07;2.63;;;19.30;99.90;;;;;;5048147;28;20021;-71
2023/07/06 11:02:20;;;;;;;4.15;2.42;;;19.20;99.90;;;;;;5049805;28;20024;-72
2023/07/06 11:05:08;;;;;;;6.45;2.38;;;19.20;99.90;;;;;;5050174;28;20025;-71
2023/07/06 11:07:41;;;;;;;6.43;2.42;;;19.00;99.90;;;;;;5049739;28;20458;-71
2023/07/06 11:10:13;;;;;;;6.13;2.55;;;18.90;99.90;;;;;;5050189;28;20033;-72
2023/07/06 11:13:01;;;;;;;3.33;2.00;;;18.80;99.90;;;;;;5049715;28;20130;-71
2023/07/06 11:15:35;;;;;;;4.25;2.30;;;18.70;99.90;;;;;;5049413;28;20043;-72
2023/07/06 11:18:25;;;;;;;3.20;2.25;;;18.60;99.90;;;;;;5049875;28;20025;-71
2023/07/06 11:20:58;;;;;;;3.90;1.98;;;18.70;99.90;;;;;;5050409;28;20021;-71
2023/07/06 11:23:38;;;;;;;2.80;1.90;;;18.70;99.90;;;;;;5049221;28;20187;-71
2023/07/06 11:26:13;;;;;;;3.78;1.90;;;18.70;99.90;;;;;;5049973;28;20032;-72
2023/07/06 11:28:40;;;;;;;6.72;1.98;;;18.70;99.90;;;;;;5049708;28;20053;-72
2023/07/06 11:31:24;;;;;;;6.78;1.98;;;18.90;99.90;;;;;;5050183;28;20071;-72
2023/07/06 11:34:16;;;;;;;5.90;2.50;;;18.90;99.90;;;;;;5049829;28;20489;-71
2023/07/06 11:37:08;;;;;;;3.40;2.40;;;18.90;99.90;;;;;;5050058;28;20021;-72
2023/07/06 11:40:00;;;;;;;3.47;2.10;;;18.70;99.90;;;;;;5049239;28;20029;-72
2023/07/06 11:42:37;;;;;;;3.55;2.30;;;18.40;99.90;;;;;;5047816;28;20051;-72
2023/07/06 11:45:28;;;;;;;7.68;2.70;;;18.10;99.90;;;;;;5049472;28;20023;-72
2023/07/06 11:48:13;;;;;;;4.45;2.20;;;18.00;99.90;;;;;;5049339;28;20033;-72
2023/07/06 11:50:39;;;;;;;6.70;3.15;;;17.90;99.90;;;;;;5048850;28;20129;-72
2023/07/06 11:53:44;;;;;;;4.95;2.50;;;17.70;99.90;;;;;;5049273;28;20131;-72
2023/07/06 11:56:32;;;;;;;5.78;2.88;;;17.60;99.90;;;;;;5049475;28;20041;-72
2023/07/06 11:59:04;;;;;;;5.05;2.25;;;17.50;99.90;;;;;;5049518;28;20027;-72
2023/07/06 12:04:10;;;;;;;7.22;2.40;;;17.20;99.90;;;;;;5049306;28;20037;-72
2023/07/06 12:06:37;;;;;;;6.63;2.63;;;17.20;99.90;;;;;;5046434;28;20036;-74
2023/07/06 12:09:08;;;;;;;5.45;2.50;;;17.20;99.90;;;;;;5051636;28;20443;-72
2023/07/06 12:11:37;;;;;;;5.68;2.50;;;17.10;99.90;;;;;;5050531;28;20112;-73
2023/07/06 12:14:05;;;;;;;4.22;2.05;;;17.00;99.90;;;;;;5051986;28;20067;-72
2023/07/06 12:16:39;;;;;;;3.15;2.00;;;17.00;99.90;;;;;;5051523;28;20037;-72
2023/07/06 12:19:12;;;;;;;4.65;2.05;;;17.00;99.90;;;;;;5052272;28;20083;-72
2023/07/06 12:21:44;;;;;;;3.53;2.05;;;16.90;99.90;;;;;;5051295;28;20025;-72
2023/07/06 12:24:16;;;;;;;4.03;1.80;;;16.80;99.90;;;;;;5052163;28;20040;-72
2023/07/06 12:26:45;;;;;;;2.08;1.85;;;16.80;99.90;;;;;;5051930;28;20059;-71
2023/07/06 12:29:14;;;;;;;4.45;1.98;;;16.70;99.90;;;;;;5051519;28;20049;-71
2023/07/06 12:31:40;;;;;;;3.22;1.80;;;16.70;99.90;;;;;;5051790;28;20097;-72
2023/07/06 12:34:06;;;;;;;3.92;2.13;;;16.70;99.90;;;;;;5051852;28;20061;-72
2023/07/06 12:36:35;;;;;;;4.10;1.80;;;16.80;99.90;;;;;;5052153;28;20139;-72
2023/07/06 12:39:05;;;;;;;3.05;2.05;;;16.90;99.90;;;;;;5052058;28;20170;-72
2023/07/06 12:41:36;;;;;;;4.10;1.90;;;16.90;99.90;;;;;;5051196;28;20086;-72
2023/07/06 12:44:05;;;;;;;3.88;2.28;;;17.00;99.90;;;;;;5052098;28;20527;-72
2023/07/06 12:46:33;;;;;;;3.53;2.13;;;17.10;99.90;;;;;;5049840;28;20083;-72
2023/07/06 12:49:06;;;;;;;6.68;2.20;;;17.20;99.90;;;;;;5051337;28;20327;-72
2023/07/06 12:51:32;;;;;;;5.05;1.90;;;17.30;99.90;;;;;;5051220;28;20056;-72
2023/07/06 12:53:58;;;;;;;4.95;2.15;;;17.40;99.90;;;;;;5051762;28;20060;-73
2023/07/06 12:56:29;;;;;;;5.78;2.15;;;17.50;99.90;;;;;;5051287;28;20079;-72
2023/07/06 12:58:57;;;;;;;6.10;2.10;;;17.50;99.90;;;;;;5051736;28;20206;-72
2023/07/06 13:01:37;;;;;;;5.07;1.80;;;17.50;99.90;;;;;;5050807;28;20069;-72
2023/07/06 13:04:09;;;;;;;3.97;2.00;;;17.50;99.90;;;;;;5051361;28;20025;-72
2023/07/06 13:06:45;;;;;;;5.72;2.35;;;17.60;99.90;;;;;;5051246;28;20821;-72
2023/07/06 13:09:21;;;;;;;4.60;2.15;;;17.50;99.90;;;;;;5051450;28;20496;-72
2023/07/06 13:11:48;;;;;;;5.22;2.40;;;17.40;99.90;;;;;;5051523;28;20025;-72